createdAt,value
2018-01-24T00:00:11.940Z,8.66
2018-01-24T00:02:43.096Z,8.70
2018-01-24T00:05:14.182Z,8.69
2018-01-24T00:07:45.264Z,8.68
2018-01-24T00:10:16.347Z,8.65
2018-01-24T00:12:48.874Z,8.66
2018-01-24T00:15:20.451Z,8.60
2018-01-24T00:17:51.668Z,8.50
2018-01-24T00:20:22.723Z,8.42
2018-01-24T00:22:54.402Z,8.34
2018-01-24T00:25:25.467Z,8.30
2018-01-24T00:27:56.527Z,8.35
2018-01-24T00:30:27.633Z,8.40
2018-01-24T00:32:58.910Z,8.42
2018-01-24T00:35:30.020Z,8.41
2018-01-24T00:38:01.086Z,8.44
2018-01-24T00:40:32.211Z,8.39
2018-01-24T00:43:03.286Z,8.36
2018-01-24T00:45:34.377Z,8.32
2018-01-24T00:48:05.452Z,8.36
2018-01-24T00:50:36.562Z,8.42
2018-01-24T00:53:07.685Z,8.40
2018-01-24T00:55:39.241Z,8.35
2018-01-24T00:58:10.314Z,8.39
2018-01-24T01:00:41.413Z,8.43
2018-01-24T01:03:12.469Z,8.40
2018-01-24T01:05:43.584Z,8.35
2018-01-24T01:08:14.788Z,8.33
2018-01-24T01:10:45.871Z,8.25
2018-01-24T01:13:17.356Z,8.31
2018-01-24T01:15:49.114Z,8.34
2018-01-24T01:18:20.183Z,8.36
2018-01-24T01:20:51.291Z,8.43
2018-01-24T01:23:22.298Z,8.42
2018-01-24T01:25:53.373Z,8.44
2018-01-24T01:28:24.429Z,8.47
2018-01-24T01:30:55.526Z,8.45
2018-01-24T01:33:26.555Z,8.34
2018-01-24T01:35:57.644Z,8.26
2018-01-24T01:38:28.719Z,8.30
2018-01-24T01:40:59.841Z,8.36
2018-01-24T01:43:31.897Z,8.41
2018-01-24T01:46:03.000Z,8.52
2018-01-24T01:48:34.148Z,8.66
2018-01-24T01:51:05.275Z,8.64
2018-01-24T01:53:36.404Z,8.65
2018-01-24T01:56:07.472Z,8.68
2018-01-24T01:58:38.620Z,8.59
2018-01-24T02:01:09.733Z,8.65
2018-01-24T02:03:40.867Z,8.68
2018-01-24T02:06:11.959Z,8.70
2018-01-24T02:08:43.951Z,8.71
2018-01-24T02:11:15.018Z,8.76
2018-01-24T02:13:46.174Z,8.79
2018-01-24T02:16:17.209Z,8.70
2018-01-24T02:18:49.015Z,8.74
2018-01-24T02:24:16.171Z,8.75
2018-01-24T02:26:47.277Z,8.81
2018-01-24T02:29:18.361Z,8.86
2018-01-24T02:31:49.493Z,8.87
2018-01-24T02:34:20.547Z,8.85
2018-01-24T02:36:51.668Z,8.85
2018-01-24T02:39:22.760Z,8.85
2018-01-24T02:41:53.852Z,8.89
2018-01-24T02:44:24.916Z,8.96
2018-01-24T02:46:55.995Z,9.03
2018-01-24T02:49:27.127Z,9.03
2018-01-24T02:51:58.192Z,8.94
2018-01-24T02:54:29.309Z,8.96
2018-01-24T02:57:00.377Z,9.03
2018-01-24T02:59:31.495Z,9.06
2018-01-24T03:02:03.353Z,9.09
2018-01-24T03:04:34.452Z,9.10
2018-01-24T03:07:05.520Z,9.07
2018-01-24T03:09:41.757Z,9.12
2018-01-24T03:12:13.101Z,9.16
2018-01-24T03:14:44.195Z,9.14
2018-01-24T03:17:15.287Z,9.15
2018-01-24T03:19:46.362Z,9.08
2018-01-24T03:22:17.437Z,8.93
2018-01-24T03:24:48.632Z,8.89
2018-01-24T03:27:19.703Z,8.92
2018-01-24T03:29:50.814Z,9.00
2018-01-24T03:32:21.887Z,9.06
2018-01-24T03:34:53.015Z,9.10
2018-01-24T03:37:24.110Z,9.13
2018-01-24T03:39:55.219Z,9.13
2018-01-24T03:42:26.313Z,9.20
2018-01-24T03:44:57.419Z,9.19
2018-01-24T03:47:28.529Z,9.25
2018-01-24T03:49:59.585Z,9.25
2018-01-24T03:52:31.183Z,9.25
2018-01-24T03:55:02.256Z,9.31
2018-01-24T03:57:33.358Z,9.33
2018-01-24T04:00:04.430Z,9.32
2018-01-24T04:02:35.500Z,9.29
2018-01-24T04:05:06.607Z,9.26
2018-01-24T04:07:37.678Z,9.32
2018-01-24T04:10:08.733Z,9.35
2018-01-24T04:12:41.060Z,9.42
2018-01-24T04:15:12.134Z,9.48
2018-01-24T04:17:43.223Z,9.47
2018-01-24T04:20:14.299Z,9.45
2018-01-24T04:22:46.100Z,9.38
2018-01-24T04:25:17.157Z,9.37
2018-01-24T04:27:48.268Z,9.35
2018-01-24T04:30:19.329Z,9.37
2018-01-24T04:32:50.412Z,9.41
2018-01-24T04:35:21.460Z,9.40
2018-01-24T04:37:52.549Z,9.35
2018-01-24T04:40:23.645Z,9.34
2018-01-24T04:42:54.691Z,9.39
2018-01-24T04:45:25.785Z,9.43
2018-01-24T04:47:56.876Z,9.44
2018-01-24T04:50:27.973Z,9.38
2018-01-24T04:52:59.072Z,9.36
2018-01-24T04:55:30.148Z,9.36
2018-01-24T04:58:01.241Z,9.33
2018-01-24T05:00:32.367Z,9.30
2018-01-24T05:03:04.450Z,9.35
2018-01-24T05:05:35.566Z,9.42
2018-01-24T05:08:06.673Z,9.44
2018-01-24T05:10:37.730Z,9.44
2018-01-24T05:13:09.109Z,9.43
2018-01-24T05:15:40.253Z,9.45
2018-01-24T05:18:11.370Z,9.46
2018-01-24T05:20:42.429Z,9.48
2018-01-24T05:23:13.556Z,9.49
2018-01-24T05:25:44.583Z,9.50
2018-01-24T05:28:15.738Z,9.47
2018-01-24T05:30:46.839Z,9.39
2018-01-24T05:33:19.788Z,9.36
2018-01-24T05:35:50.913Z,9.39
2018-01-24T05:38:22.038Z,9.41
2018-01-24T05:40:53.149Z,9.39
2018-01-24T05:43:24.209Z,9.39
2018-01-24T05:45:55.288Z,9.39
2018-01-24T05:48:26.317Z,9.35
2018-01-24T05:50:57.407Z,9.31
2018-01-24T05:53:28.583Z,9.30
2018-01-24T05:55:59.635Z,9.28
2018-01-24T05:58:30.816Z,9.32
2018-01-24T06:01:01.920Z,9.33
2018-01-24T06:03:32.999Z,9.35
2018-01-24T06:06:04.104Z,9.37
2018-01-24T06:08:35.203Z,9.43
2018-01-24T06:11:06.321Z,9.46
2018-01-24T06:13:37.698Z,9.46
2018-01-24T06:16:08.714Z,9.46
2018-01-24T06:18:39.772Z,9.45
2018-01-24T06:21:10.861Z,9.50
2018-01-24T06:23:41.924Z,9.53
2018-01-24T06:26:13.043Z,9.55
2018-01-24T06:28:44.152Z,9.58
2018-01-24T06:31:15.259Z,9.59
2018-01-24T06:33:46.810Z,9.60
2018-01-24T06:36:18.372Z,9.58
2018-01-24T06:38:49.495Z,9.56
2018-01-24T06:41:20.561Z,9.63
2018-01-24T06:43:51.670Z,9.71
2018-01-24T06:46:22.736Z,9.73
2018-01-24T06:48:53.993Z,9.70
2018-01-24T06:51:25.084Z,9.68
2018-01-24T06:53:56.186Z,9.71
2018-01-24T06:56:27.224Z,9.71
2018-01-24T06:58:58.363Z,9.76
2018-01-24T07:01:29.479Z,9.72
2018-01-24T07:04:00.518Z,9.76
2018-01-24T07:06:31.617Z,9.79
2018-01-24T07:09:02.744Z,9.86
2018-01-24T07:11:33.871Z,9.96
2018-01-24T07:17:07.132Z,10.11
2018-01-24T07:19:38.260Z,10.17
2018-01-24T07:22:09.348Z,10.18
2018-01-24T07:24:40.484Z,10.14
2018-01-24T07:27:11.604Z,10.13
2018-01-24T07:29:42.718Z,10.17
2018-01-24T07:32:13.819Z,10.23
2018-01-24T07:34:45.449Z,10.35
2018-01-24T07:37:16.532Z,10.42
2018-01-24T07:39:47.650Z,10.51
2018-01-24T07:42:18.725Z,10.62
2018-01-24T07:44:49.833Z,10.72
2018-01-24T07:47:20.889Z,10.76
2018-01-24T07:49:51.978Z,10.84
2018-01-24T07:52:23.060Z,10.86
2018-01-24T07:54:54.158Z,10.94
2018-01-24T07:57:25.221Z,11.06
2018-01-24T07:59:56.331Z,11.26
2018-01-24T08:02:27.412Z,11.46
2018-01-24T08:04:58.546Z,11.61
2018-01-24T08:07:29.565Z,11.69
2018-01-24T08:10:01.440Z,11.62
2018-01-24T08:12:32.530Z,11.51
2018-01-24T08:15:03.628Z,11.42
2018-01-24T08:17:34.712Z,11.34
2018-01-24T08:20:05.747Z,11.15
2018-01-24T08:22:36.808Z,10.99
2018-01-24T08:25:07.853Z,10.75
2018-01-24T08:27:39.060Z,10.62
2018-01-24T08:30:10.185Z,10.59
2018-01-24T08:32:41.266Z,10.55
2018-01-24T08:35:12.363Z,10.63
2018-01-24T08:37:43.463Z,10.79
2018-01-24T08:40:14.527Z,10.90
2018-01-24T08:42:45.632Z,11.03
2018-01-24T08:45:16.677Z,11.32
2018-01-24T08:47:47.770Z,11.80
2018-01-24T08:50:18.869Z,12.32
2018-01-24T08:52:50.022Z,12.88
2018-01-24T08:55:21.154Z,13.38
2018-01-24T08:57:52.256Z,13.83
2018-01-24T09:00:23.378Z,14.22
2018-01-24T09:02:54.413Z,14.57
2018-01-24T09:05:25.478Z,16.14
2018-01-24T09:07:56.496Z,18.82
2018-01-24T09:10:27.595Z,20.83
2018-01-24T09:12:58.646Z,21.87
2018-01-24T09:15:29.726Z,22.78
2018-01-24T09:18:00.800Z,24.07
2018-01-24T09:20:31.929Z,25.12
2018-01-24T09:23:03.012Z,26.00
2018-01-24T09:25:34.167Z,26.43
2018-01-24T09:28:05.272Z,27.04
2018-01-24T09:30:36.396Z,27.12
2018-01-24T09:33:07.454Z,27.21
2018-01-24T09:35:38.579Z,27.17
2018-01-24T09:38:09.627Z,26.86
2018-01-24T09:40:40.747Z,27.02
2018-01-24T09:43:11.832Z,27.55
2018-01-24T09:45:42.906Z,27.41
2018-01-24T09:48:13.941Z,26.56
2018-01-24T09:50:45.028Z,25.90
2018-01-24T09:53:16.107Z,24.29
2018-01-24T09:55:47.158Z,22.61
2018-01-24T09:58:18.264Z,22.13
2018-01-24T10:00:49.294Z,21.30
2018-01-24T10:03:20.553Z,21.31
2018-01-24T10:05:51.640Z,22.64
2018-01-24T10:08:22.721Z,23.76
2018-01-24T10:10:53.834Z,24.12
2018-01-24T10:13:24.905Z,24.38
2018-01-24T10:15:56.016Z,24.89
2018-01-24T10:18:27.074Z,24.75
2018-01-24T10:20:58.388Z,25.12
2018-01-24T10:23:29.465Z,25.38
2018-01-24T10:26:00.547Z,25.44
2018-01-24T10:28:31.628Z,25.49
2018-01-24T10:31:03.321Z,25.59
2018-01-24T10:33:34.411Z,25.77
2018-01-24T10:36:05.520Z,26.05
2018-01-24T10:38:36.631Z,26.18
2018-01-24T10:41:07.651Z,26.03
2018-01-24T10:43:45.768Z,26.05
2018-01-24T10:46:16.849Z,26.19
2018-01-24T10:48:47.937Z,26.27
2018-01-24T10:51:19.021Z,26.45
2018-01-24T10:53:50.704Z,26.53
2018-01-24T10:56:21.770Z,26.61
2018-01-24T10:58:52.877Z,26.33
2018-01-24T11:01:23.925Z,26.04
2018-01-24T11:03:54.983Z,25.60
2018-01-24T11:06:26.018Z,25.43
2018-01-24T11:08:57.076Z,25.27
2018-01-24T11:11:28.170Z,25.25
2018-01-24T11:13:59.273Z,25.54
2018-01-24T11:16:30.286Z,25.27
2018-01-24T11:19:01.344Z,25.30
2018-01-24T11:21:32.388Z,25.10
2018-01-24T11:24:03.504Z,24.86
2018-01-24T11:26:34.562Z,24.58
2018-01-24T11:29:05.662Z,24.62
2018-01-24T11:31:36.771Z,24.71
2018-01-24T11:34:08.060Z,24.66
2018-01-24T11:36:39.114Z,24.61
2018-01-24T11:39:10.230Z,24.31
2018-01-24T11:41:41.255Z,23.77
2018-01-24T11:44:12.339Z,22.68
2018-01-24T11:46:43.617Z,21.02
2018-01-24T11:49:14.638Z,20.05
2018-01-24T11:51:45.746Z,19.14
2018-01-24T11:54:16.835Z,18.40
2018-01-24T11:56:47.983Z,17.64
2018-01-24T11:59:19.668Z,17.05
2018-01-24T12:01:50.771Z,16.66
2018-01-24T12:04:23.038Z,16.57
2018-01-24T12:06:54.088Z,16.44
2018-01-24T12:09:25.166Z,16.32
2018-01-24T12:11:56.237Z,16.35
2018-01-24T12:14:27.332Z,16.37
2018-01-24T12:16:58.406Z,16.21
2018-01-24T12:19:29.511Z,16.03
2018-01-24T12:22:00.558Z,16.04
2018-01-24T12:24:31.675Z,16.04
2018-01-24T12:27:02.804Z,16.20
2018-01-24T12:29:33.890Z,16.24
2018-01-24T12:32:04.932Z,16.19
2018-01-24T12:34:36.030Z,16.32
2018-01-24T12:37:07.086Z,16.43
2018-01-24T12:39:38.147Z,16.46
2018-01-24T12:42:09.200Z,16.60
2018-01-24T12:44:40.278Z,16.64
2018-01-24T12:47:11.368Z,16.52
2018-01-24T12:49:42.449Z,16.57
2018-01-24T12:52:13.582Z,16.69
2018-01-24T12:54:44.668Z,16.65
2018-01-24T12:57:15.727Z,16.63
2018-01-24T12:59:46.790Z,16.62
2018-01-24T13:02:17.899Z,16.59
2018-01-24T13:04:48.980Z,16.56
2018-01-24T13:07:20.108Z,16.63
2018-01-24T13:09:51.185Z,16.65
2018-01-24T13:12:22.265Z,16.45
2018-01-24T13:14:53.614Z,16.42
2018-01-24T13:17:24.699Z,16.42
2018-01-24T13:19:55.812Z,16.31
2018-01-24T13:22:26.998Z,16.12
2018-01-24T13:24:58.057Z,15.96
2018-01-24T13:27:29.155Z,15.98
2018-01-24T13:30:00.184Z,16.03
2018-01-24T13:32:31.281Z,16.03
2018-01-24T13:35:02.365Z,16.06
2018-01-24T13:37:33.474Z,16.17
2018-01-24T13:40:04.524Z,16.20
2018-01-24T13:42:35.773Z,16.19
2018-01-24T13:45:06.881Z,16.19
2018-01-24T13:47:37.964Z,16.20
2018-01-24T13:50:09.012Z,16.14
2018-01-24T13:52:40.070Z,16.15
2018-01-24T13:55:11.304Z,16.04
2018-01-24T13:57:42.367Z,16.06
2018-01-24T14:00:13.470Z,15.94
2018-01-24T14:02:44.558Z,15.85
2018-01-24T14:05:15.664Z,15.73
2018-01-24T14:07:46.723Z,15.52
2018-01-24T14:10:17.844Z,15.39
2018-01-24T14:12:49.878Z,15.37
2018-01-24T14:15:20.958Z,15.33
2018-01-24T14:17:51.986Z,15.28
2018-01-24T14:20:23.099Z,15.23
2018-01-24T14:22:54.784Z,15.22
2018-01-24T14:25:25.893Z,15.21
2018-01-24T14:27:56.958Z,15.22
2018-01-24T14:30:28.128Z,15.24
2018-01-24T14:32:59.278Z,15.28
2018-01-24T14:35:30.385Z,15.30
2018-01-24T14:38:01.430Z,15.27
2018-01-24T14:40:32.556Z,15.14
2018-01-24T14:43:03.640Z,15.06
2018-01-24T14:45:34.735Z,15.01
2018-01-24T14:48:05.834Z,15.03
2018-01-24T14:50:36.911Z,15.11
2018-01-24T14:53:07.985Z,15.05
2018-01-24T14:55:39.114Z,14.93
2018-01-24T14:58:10.236Z,14.85
2018-01-24T15:00:41.331Z,14.78
2018-01-24T15:03:12.441Z,14.73
2018-01-24T15:05:43.453Z,14.69
2018-01-24T15:08:14.599Z,14.61
2018-01-24T15:10:45.640Z,14.49
2018-01-24T15:13:16.764Z,14.36
2018-01-24T15:15:47.817Z,14.22
2018-01-24T15:18:18.912Z,14.10
2018-01-24T15:20:49.990Z,13.98
2018-01-24T15:23:21.102Z,13.86
2018-01-24T15:25:52.281Z,13.78
2018-01-24T15:28:23.390Z,13.71
2018-01-24T15:30:54.480Z,13.64
2018-01-24T15:33:25.642Z,13.52
2018-01-24T15:35:56.675Z,13.40
2018-01-24T15:38:27.920Z,13.30
2018-01-24T15:40:58.994Z,13.21
2018-01-24T15:43:30.077Z,13.10
2018-01-24T15:46:01.113Z,12.98
2018-01-24T15:48:32.221Z,12.86
2018-01-24T15:51:03.278Z,12.77
2018-01-24T15:53:34.393Z,12.66
2018-01-24T15:56:05.444Z,12.55
2018-01-24T15:58:36.558Z,12.44
2018-01-24T16:01:07.640Z,12.35
2018-01-24T16:03:38.757Z,12.27
2018-01-24T16:06:09.842Z,12.20
2018-01-24T16:08:40.942Z,12.12
2018-01-24T16:11:12.002Z,12.04
2018-01-24T16:13:43.078Z,11.95
2018-01-24T16:16:14.115Z,11.87
2018-01-24T16:18:45.257Z,11.78
2018-01-24T16:21:16.318Z,11.72
2018-01-24T16:23:47.495Z,11.67
2018-01-24T16:26:18.532Z,11.67
2018-01-24T16:28:49.647Z,11.63
2018-01-24T16:31:20.716Z,11.57
2018-01-24T16:33:51.827Z,11.52
2018-01-24T16:36:22.916Z,11.48
2018-01-24T16:38:54.062Z,11.41
2018-01-24T16:41:25.132Z,11.32
2018-01-24T16:43:56.269Z,11.22
2018-01-24T16:46:27.298Z,11.12
2018-01-24T16:48:58.415Z,11.05
2018-01-24T16:51:29.479Z,10.98
2018-01-24T16:54:00.578Z,10.92
2018-01-24T16:56:31.714Z,10.88
2018-01-24T16:59:02.811Z,10.85
2018-01-24T17:01:33.929Z,10.82
2018-01-24T17:04:05.462Z,10.79
2018-01-24T17:06:36.505Z,10.78
2018-01-24T17:09:07.613Z,10.75
2018-01-24T17:11:38.672Z,10.65
2018-01-24T17:14:09.821Z,10.57
2018-01-24T17:16:40.951Z,10.51
2018-01-24T17:19:12.030Z,10.47
2018-01-24T17:21:43.124Z,10.42
2018-01-24T17:24:14.191Z,10.38
2018-01-24T17:26:45.330Z,10.39
2018-01-24T17:29:16.411Z,10.39
2018-01-24T17:31:47.522Z,10.35
2018-01-24T17:34:18.620Z,10.31
2018-01-24T17:36:49.728Z,10.22
2018-01-24T17:39:20.812Z,10.15
2018-01-24T17:41:51.881Z,10.11
2018-01-24T17:44:23.003Z,10.08
2018-01-24T17:46:54.188Z,10.06
2018-01-24T17:49:25.258Z,10.06
2018-01-24T17:51:56.573Z,10.03
2018-01-24T17:54:27.706Z,10.00
2018-01-24T17:56:58.853Z,9.97
2018-01-24T17:59:30.736Z,9.96
2018-01-24T18:02:01.758Z,9.94
2018-01-24T18:04:32.848Z,9.90
2018-01-24T18:07:03.978Z,9.89
2018-01-24T18:09:35.070Z,9.85
2018-01-24T18:12:06.136Z,9.79
2018-01-24T18:14:37.359Z,9.76
2018-01-24T18:17:08.554Z,9.73
2018-01-24T18:19:39.628Z,9.70
2018-01-24T18:22:10.744Z,9.68
2018-01-24T18:24:41.782Z,9.66
2018-01-24T18:27:13.598Z,9.66
2018-01-24T18:29:44.690Z,9.64
2018-01-24T18:32:15.760Z,9.60
2018-01-24T18:34:46.792Z,9.56
2018-01-24T18:37:17.881Z,9.52
2018-01-24T18:39:48.990Z,9.50
2018-01-24T18:42:20.042Z,9.45
2018-01-24T18:44:51.140Z,9.42
2018-01-24T18:47:22.239Z,9.31
2018-01-24T18:49:55.293Z,9.18
2018-01-24T18:52:26.350Z,9.04
2018-01-24T18:54:57.446Z,8.98
2018-01-24T18:57:28.514Z,8.91
2018-01-24T18:59:59.584Z,8.85
2018-01-24T19:02:30.666Z,8.82
2018-01-24T19:05:01.742Z,8.83
2018-01-24T19:07:32.853Z,8.82
2018-01-24T19:10:03.978Z,8.78
2018-01-24T19:12:35.049Z,8.78
2018-01-24T19:15:06.128Z,8.77
2018-01-24T19:17:37.136Z,8.78
2018-01-24T19:20:08.234Z,8.76
2018-01-24T19:22:39.283Z,8.71
2018-01-24T19:25:10.407Z,8.70
2018-01-24T19:27:41.466Z,8.70
2018-01-24T19:30:12.556Z,8.68
2018-01-24T19:32:43.637Z,8.68
2018-01-24T19:35:14.673Z,8.64
2018-01-24T19:37:45.774Z,8.60
2018-01-24T19:40:16.943Z,8.53
2018-01-24T19:42:48.045Z,8.45
2018-01-24T19:45:19.157Z,8.42
2018-01-24T19:47:50.192Z,8.42
2018-01-24T19:50:21.284Z,8.44
2018-01-24T19:52:52.371Z,8.39
2018-01-24T19:55:23.426Z,8.34
2018-01-24T19:57:54.502Z,8.36
2018-01-24T20:00:25.592Z,8.39
2018-01-24T20:02:56.707Z,8.38
2018-01-24T20:05:27.759Z,8.35
2018-01-24T20:07:58.893Z,8.33
2018-01-24T20:10:29.961Z,8.28
2018-01-24T20:13:01.309Z,8.28
2018-01-24T20:15:32.420Z,8.28
2018-01-24T20:18:03.554Z,8.19
2018-01-24T20:20:34.658Z,8.14
2018-01-24T20:23:05.732Z,8.09
2018-01-24T20:25:37.317Z,8.09
2018-01-24T20:28:08.376Z,8.09
2018-01-24T20:30:39.463Z,8.11
2018-01-24T20:33:10.545Z,8.12
2018-01-24T20:35:41.587Z,8.12
2018-01-24T20:38:13.135Z,8.09
2018-01-24T20:40:44.204Z,8.03
2018-01-24T20:43:15.322Z,7.95
2018-01-24T20:45:46.415Z,7.95
2018-01-24T20:48:17.559Z,7.96
2018-01-24T20:50:48.627Z,7.96
2018-01-24T20:53:19.739Z,7.98
2018-01-24T20:55:51.054Z,7.98
2018-01-24T20:58:22.116Z,7.99
2018-01-24T21:00:53.408Z,7.98
2018-01-24T21:03:24.461Z,7.98
2018-01-24T21:05:55.549Z,8.01
2018-01-24T21:08:26.717Z,8.03
2018-01-24T21:10:57.831Z,8.02
2018-01-24T21:13:28.919Z,8.03
2018-01-24T21:16:00.042Z,7.98
2018-01-24T21:18:31.082Z,7.94
2018-01-24T21:21:02.206Z,7.91
2018-01-24T21:23:33.236Z,7.85
2018-01-24T21:26:04.298Z,7.79
2018-01-24T21:32:10.818Z,7.65
2018-01-24T21:34:54.075Z,7.54
2018-01-24T21:37:25.120Z,7.51
2018-01-24T21:39:56.238Z,7.53
2018-01-24T21:42:27.338Z,7.52
2018-01-24T21:44:58.453Z,7.53
2018-01-24T21:47:29.531Z,7.52
2018-01-24T21:50:00.597Z,7.53
2018-01-24T21:52:31.659Z,7.55
2018-01-24T21:55:02.735Z,7.56
2018-01-24T21:57:33.810Z,7.58
2018-01-24T22:00:04.923Z,7.55
2018-01-24T22:02:36.088Z,7.52
2018-01-24T22:05:07.185Z,7.53
2018-01-24T22:07:38.304Z,7.53
2018-01-24T22:10:09.457Z,7.51
2018-01-24T22:12:40.589Z,7.53
2018-01-24T22:15:11.692Z,7.57
2018-01-24T22:17:42.777Z,7.58
2018-01-24T22:20:13.913Z,7.54
2018-01-24T22:22:45.014Z,7.58
2018-01-24T22:25:16.105Z,7.59
2018-01-24T22:27:49.320Z,7.61
2018-01-24T22:30:20.425Z,7.53
2018-01-24T22:32:51.653Z,7.52
2018-01-24T22:35:22.706Z,7.45
2018-01-24T22:37:55.002Z,7.40
2018-01-24T22:40:26.042Z,7.37
2018-01-24T22:42:58.470Z,7.33
2018-01-24T22:45:29.509Z,7.30
2018-01-24T22:48:00.913Z,7.25
2018-01-24T22:50:32.209Z,7.29
2018-01-24T22:53:03.309Z,7.31
2018-01-24T22:55:34.445Z,7.34
2018-01-24T22:58:05.495Z,7.34
2018-01-24T23:00:36.579Z,7.38
2018-01-24T23:03:07.682Z,7.47
2018-01-24T23:05:38.693Z,7.53
2018-01-24T23:08:09.828Z,7.56
2018-01-24T23:10:40.978Z,7.57
2018-01-24T23:13:12.442Z,7.57
2018-01-24T23:15:43.524Z,7.53
2018-01-24T23:18:14.661Z,7.50
2018-01-24T23:20:45.744Z,7.48
2018-01-24T23:23:16.886Z,7.45
2018-01-24T23:25:47.952Z,7.40
2018-01-24T23:28:19.181Z,7.31
2018-01-24T23:30:50.242Z,7.18
2018-01-24T23:33:21.399Z,7.09
2018-01-24T23:35:52.500Z,7.04
2018-01-24T23:38:24.233Z,6.90
2018-01-24T23:40:55.355Z,6.87
2018-01-24T23:43:26.425Z,6.86
2018-01-24T23:45:57.615Z,6.83
2018-01-24T23:48:28.846Z,6.81
2018-01-24T23:50:59.941Z,6.76
2018-01-24T23:53:31.041Z,6.75
2018-01-24T23:56:02.118Z,6.73
2018-01-24T23:58:33.202Z,6.75
